Time;durP1;ratioP1;P1;durP2;ratioP2;P2;SDS_P1;SDS_P2;PMS_P1;PMS_P2;Temp;Humidity;BMP_temperature;BMP_pressure;BME280_temperature;BME280_humidity;BME280_pressure;Samples;Min_cycle;Max_cycle;Signal;HPM_P1;HPM_P2
2023/07/01 00:04:02;;;;;;;2.47;0.63;;;;;;;23.34;38.04;100737.91;16111824;19;130414;-43
2023/07/01 00:09:24;;;;;;;3.35;0.80;;;;;;;23.34;38.12;100743.47;16108935;19;130374;-43
2023/07/01 00:14:46;;;;;;;3.97;0.90;;;;;;;23.33;38.10;100739.00;16107563;19;131222;-43
2023/07/01 00:20:08;;;;;;;3.00;1.00;;;;;;;23.33;38.00;100729.78;16107196;19;130989;-43
2023/07/01 00:25:30;;;;;;;6.07;0.88;;;;;;;23.31;38.12;100724.50;16105848;19;132296;-43
2023/07/01 00:30:52;;;;;;;2.30;0.80;;;;;;;23.32;38.03;100714.19;16110995;19;131532;-41
2023/07/01 00:36:14;;;;;;;1.92;0.60;;;;;;;23.32;38.20;100720.59;16110733;19;129639;-44
2023/07/01 00:41:36;;;;;;;1.42;0.40;;;;;;;23.31;38.37;100713.34;16109004;19;130142;-44
2023/07/01 00:46:59;;;;;;;2.13;0.73;;;;;;;23.30;37.97;100714.44;16106880;19;131144;-46
2023/07/01 00:52:20;;;;;;;2.05;0.70;;;;;;;23.30;38.34;100706.06;16107528;19;130244;-43
2023/07/01 00:57:43;;;;;;;2.63;0.77;;;;;;;23.29;37.95;100698.81;16104190;19;130697;-48
2023/07/01 01:03:26;;;;;;;1.73;0.60;;;;;;;23.30;37.94;100689.31;16110917;19;130396;-43
2023/07/01 01:08:57;;;;;;;2.88;0.77;;;;;;;23.27;38.15;100678.72;16108209;19;130997;-48
2023/07/01 01:14:21;;;;;;;2.10;0.60;;;;;;;23.28;38.12;100685.16;16107282;19;130362;-44
2023/07/01 01:19:53;;;;;;;1.73;0.63;;;;;;;23.27;37.95;100673.16;16103892;19;130899;-44
2023/07/01 01:25:24;;;;;;;4.63;0.60;;;;;;;23.27;37.82;100667.56;16103761;19;129720;-46
2023/07/01 01:30:47;;;;;;;2.13;0.82;;;;;;;23.25;37.84;100655.88;16099498;19;130203;-44
2023/07/01 01:36:17;;;;;;;2.30;0.70;;;;;;;23.26;38.01;100648.31;16117815;19;129234;-45
2023/07/01 01:41:52;;;;;;;3.90;0.63;;;;;;;23.25;38.22;100630.75;16128045;19;129718;-43
2023/07/01 01:47:17;;;;;;;2.87;0.80;;;;;;;23.24;38.09;100639.41;16120323;19;130257;-45
2023/07/01 01:52:41;;;;;;;1.67;0.68;;;;;;;23.23;38.00;100635.78;16116101;19;129722;-45
2023/07/01 01:58:03;;;;;;;3.40;0.75;;;;;;;23.22;37.84;100628.53;16124816;19;131040;-42
2023/07/01 02:03:25;;;;;;;1.70;0.80;;;;;;;23.22;38.38;100622.94;16114070;19;130364;-42
2023/07/01 02:08:47;;;;;;;2.20;0.80;;;;;;;23.22;37.85;100624.88;16116018;19;130035;-47
2023/07/01 02:14:09;;;;;;;2.28;0.70;;;;;;;23.21;38.09;100615.69;16120589;19;129638;-47
2023/07/01 02:19:31;;;;;;;1.27;0.70;;;;;;;23.22;38.37;100611.78;16119632;19;130241;-46
2023/07/01 02:24:54;;;;;;;1.83;0.77;;;;;;;23.21;38.36;100601.75;16114445;19;130780;-50
2023/07/01 02:30:16;;;;;;;3.45;0.90;;;;;;;23.20;38.31;100602.84;16117220;19;130233;-53
2023/07/01 02:35:38;;;;;;;3.38;0.73;;;;;;;23.19;38.37;100595.59;16113897;19;131793;-49
2023/07/01 02:41:00;;;;;;;1.90;0.90;;;;;;;23.19;38.37;100590.03;16112958;19;131006;-51
2023/07/01 02:46:22;;;;;;;1.42;0.70;;;;;;;23.18;38.64;100579.97;16108923;19;130342;-50
2023/07/01 02:51:44;;;;;;;2.38;0.80;;;;;;;23.18;38.14;100577.19;16115225;19;130962;-52
2023/07/01 02:57:07;;;;;;;1.50;0.77;;;;;;;23.18;38.44;100574.41;16117012;19;130379;-51
2023/07/01 03:02:29;;;;;;;3.95;0.57;;;;;;;23.18;38.17;100571.59;16113691;19;129759;-45
2023/07/01 03:07:52;;;;;;;1.95;0.88;;;;;;;23.17;38.64;100567.13;16113015;19;130864;-45
2023/07/01 03:13:15;;;;;;;3.28;0.95;;;;;;;23.16;38.82;100571.91;16107316;19;130539;-43
2023/07/01 03:18:37;;;;;;;1.45;0.70;;;;;;;23.15;38.96;100556.28;16114751;19;130102;-44
2023/07/01 03:23:58;;;;;;;1.88;1.00;;;;;;;23.16;38.69;100551.53;16110574;19;129973;-44
2023/07/01 03:29:20;;;;;;;2.47;0.88;;;;;;;23.16;38.46;100531.97;16109827;19;130809;-42
2023/07/01 03:34:42;;;;;;;1.48;0.68;;;;;;;23.15;38.92;100533.09;16109009;19;129717;-46
2023/07/01 03:40:10;;;;;;;0.85;0.57;;;;;;;23.14;38.80;100529.50;16112307;19;131182;-44
2023/07/01 03:45:32;;;;;;;2.45;0.75;;;;;;;23.15;38.92;100527.53;16107194;19;130699;-41
2023/07/01 03:50:54;;;;;;;1.48;0.60;;;;;;;23.13;39.08;100515.84;16106907;19;130633;-44
2023/07/01 03:56:15;;;;;;;3.03;0.80;;;;;;;23.13;38.92;100515.84;16109820;19;130078;-43
2023/07/01 04:01:37;;;;;;;2.10;0.70;;;;;;;23.13;38.96;100507.47;16111744;19;129737;-43
2023/07/01 04:06:59;;;;;;;2.90;0.70;;;;;;;23.12;39.10;100506.63;16110596;19;130345;-42
2023/07/01 04:12:21;;;;;;;1.65;0.70;;;;;;;23.11;39.33;100504.94;16108580;19;130992;-44
2023/07/01 04:17:45;;;;;;;1.15;0.70;;;;;;;23.11;39.17;100495.75;16109661;19;130098;-42
2023/07/01 04:23:07;;;;;;;3.20;0.60;;;;;;;23.11;39.21;100481.81;16110367;19;130133;-43
2023/07/01 04:28:29;;;;;;;1.38;0.75;;;;;;;23.11;39.37;100490.19;16109322;19;129690;-44
2023/07/01 04:33:51;;;;;;;2.05;0.60;;;;;;;23.10;39.45;100477.34;16108699;19;132000;-42
2023/07/01 04:39:14;;;;;;;0.45;0.45;;;;;;;23.10;39.24;100467.00;16107277;19;129781;-41
2023/07/01 04:44:36;;;;;;;1.70;0.60;;;;;;;23.09;39.44;100458.94;16109021;19;130518;-43
2023/07/01 04:49:57;;;;;;;1.23;0.47;;;;;;;23.09;39.65;100465.34;16110056;19;131639;-44
2023/07/01 04:55:20;;;;;;;0.90;0.52;;;;;;;23.09;39.91;100464.50;16104311;19;130387;-44
2023/07/01 05:00:42;;;;;;;1.52;0.50;;;;;;;23.08;39.61;100452.50;16112356;19;129618;-46
2023/07/01 05:06:04;;;;;;;0.73;0.43;;;;;;;23.06;39.65;100454.78;16101296;19;130447;-43
2023/07/01 05:11:26;;;;;;;1.13;0.50;;;;;;;23.07;39.34;100448.06;16128771;19;130983;-44
2023/07/01 05:16:48;;;;;;;1.02;0.60;;;;;;;23.06;39.72;100443.63;16137145;19;130241;-41
2023/07/01 05:22:10;;;;;;;1.35;0.60;;;;;;;23.06;39.55;100443.63;16133530;19;134468;-44
2023/07/01 05:27:35;;;;;;;1.03;0.50;;;;;;;23.05;39.71;100439.16;16137475;19;130235;-45
2023/07/01 05:32:57;;;;;;;0.70;0.50;;;;;;;23.05;39.61;100433.56;16133931;19;130240;-43
2023/07/01 05:38:19;;;;;;;3.70;0.70;;;;;;;23.05;39.98;100436.38;16135258;19;134391;-47
2023/07/01 05:43:41;;;;;;;0.95;0.50;;;;;;;23.04;40.00;100429.13;16135023;19;130168;-48
2023/07/01 05:49:02;;;;;;;0.50;0.40;;;;;;;23.03;40.08;100431.06;16131917;19;130115;-43
2023/07/01 05:54:24;;;;;;;1.17;0.50;;;;;;;23.03;39.96;100422.69;16137036;19;130634;-44
2023/07/01 05:59:46;;;;;;;1.27;0.50;;;;;;;23.02;40.20;100426.59;16134577;19;130307;-42
2023/07/01 06:05:09;;;;;;;2.28;0.50;;;;;;;23.03;40.42;100421.88;16132269;19;129662;-44
2023/07/01 06:10:31;;;;;;;4.53;0.57;;;;;;;23.02;40.59;100426.59;16129749;19;130184;-42
2023/07/01 06:15:53;;;;;;;0.98;0.43;;;;;;;23.02;40.30;100421.00;16128494;19;131743;-44
2023/07/01 06:21:14;;;;;;;3.50;0.60;;;;;;;23.02;40.15;100426.59;16124048;19;129897;-44
2023/07/01 06:26:37;;;;;;;4.22;0.60;;;;;;;23.02;40.36;100422.97;16119018;19;134733;-43
2023/07/01 06:31:59;;;;;;;1.45;0.50;;;;;;;23.01;40.86;100412.94;16104543;19;130459;-43
2023/07/01 06:37:21;;;;;;;4.90;0.60;;;;;;;23.01;40.80;100418.53;16116899;19;129848;-48
2023/07/01 06:42:43;;;;;;;4.25;0.50;;;;;;;23.00;40.96;100414.91;16114278;19;131082;-57
2023/07/01 06:48:05;;;;;;;4.18;0.57;;;;;;;23.00;40.97;100411.28;16110828;19;129582;-41
2023/07/01 06:53:27;;;;;;;3.42;0.30;;;;;;;23.00;40.89;100412.13;16119015;19;131392;-41
2023/07/01 06:58:49;;;;;;;3.55;0.70;;;;;;;22.99;41.08;100407.66;16114628;19;131039;-42
2023/07/01 07:04:11;;;;;;;2.72;0.82;;;;;;;22.99;40.97;100410.47;16118794;19;129412;-45
2023/07/01 07:09:33;;;;;;;3.38;0.52;;;;;;;22.99;41.42;100404.03;16113390;19;131117;-44
2023/07/01 07:14:55;;;;;;;7.97;0.55;;;;;;;22.99;41.81;100407.66;16116467;19;131267;-42
2023/07/01 07:20:17;;;;;;;5.03;0.40;;;;;;;23.00;41.73;100400.97;16114196;19;130995;-45
2023/07/01 07:25:39;;;;;;;4.50;0.60;;;;;;;23.00;41.87;100395.38;16112488;19;130623;-44
2023/07/01 07:31:01;;;;;;;4.80;0.50;;;;;;;23.00;41.59;100394.53;16112084;19;129921;-45
2023/07/01 07:36:23;;;;;;;2.78;0.50;;;;;;;23.00;42.30;100394.53;16111270;19;130469;-43
2023/07/01 07:41:45;;;;;;;1.88;0.50;;;;;;;23.01;42.46;100391.47;16112283;19;130508;-44
2023/07/01 07:47:08;;;;;;;4.90;0.40;;;;;;;23.00;42.21;100388.97;16113933;19;129855;-41
2023/07/01 07:52:30;;;;;;;2.70;0.50;;;;;;;23.01;42.43;100391.47;16112839;19;129782;-45
2023/07/01 07:57:55;;;;;;;6.72;0.50;;;;;;;23.02;42.72;100387.53;16112342;19;131187;-41
2023/07/01 08:03:17;;;;;;;11.57;0.80;;;;;;;23.02;42.82;100392.28;16111961;19;131792;-47
2023/07/01 08:08:39;;;;;;;10.93;1.15;;;;;;;23.01;42.73;100385.91;16112796;19;129822;-45
2023/07/01 08:14:01;;;;;;;10.98;0.85;;;;;;;23.01;42.89;100380.31;16113377;19;130044;-49
2023/07/01 08:19:23;;;;;;;9.50;0.88;;;;;;;23.01;43.03;100385.91;16110392;19;131397;-48
2023/07/01 08:24:45;;;;;;;7.43;0.50;;;;;;;23.00;42.91;100380.59;16109821;19;129589;-41
2023/07/01 08:30:07;;;;;;;3.80;0.47;;;;;;;23.00;43.05;100384.22;16109070;19;129778;-42
2023/07/01 08:35:29;;;;;;;5.40;0.45;;;;;;;23.00;43.37;100378.66;16108910;19;129916;-45
2023/07/01 08:40:55;;;;;;;4.68;0.60;;;;;;;23.01;43.23;100371.94;16108126;19;133516;-45
2023/07/01 08:46:18;;;;;;;;;;;;;;;23.01;43.83;100376.69;16110384;19;130660;-41
2023/07/01 08:51:43;;;;;;;8.00;1.10;;;;;;;23.04;43.49;100374.13;16109501;19;131214;-46
2023/07/01 08:57:09;;;;;;;6.15;1.00;;;;;;;23.04;43.96;100378.91;16105774;19;130441;-44
2023/07/01 09:02:32;;;;;;;11.10;0.77;;;;;;;23.03;43.98;100369.69;16111271;19;129894;-46
2023/07/01 09:07:54;;;;;;;8.20;0.70;;;;;;;23.07;43.67;100374.69;16106451;19;130901;-46
2023/07/01 09:13:16;;;;;;;7.80;0.95;;;;;;;23.07;44.28;100366.31;16105791;19;131038;-42
2023/07/01 09:18:42;;;;;;;4.78;0.93;;;;;;;23.09;44.63;100369.66;16104014;19;130773;-43
2023/07/01 09:24:06;;;;;;;10.18;0.65;;;;;;;23.13;44.59;100365.16;16099731;19;130886;-43
2023/07/01 09:29:31;;;;;;;23.25;6.40;;;;;;;23.17;45.53;100366.22;16102711;19;129259;-45
2023/07/01 09:34:55;;;;;;;24.63;5.53;;;;;;;23.19;45.67;100362.03;16104742;19;130719;-42
2023/07/01 09:40:29;;;;;;;26.70;4.25;;;;;;;23.22;45.31;100363.41;16105034;19;129417;-42
2023/07/01 09:45:57;;;;;;;19.20;4.03;;;;;;;23.25;45.97;100360.06;16099749;19;131537;-41
2023/07/01 09:51:21;;;;;;;24.67;4.50;;;;;;;23.26;46.00;100364.50;16103716;19;131006;-43
2023/07/01 09:56:43;;;;;;;23.60;3.95;;;;;;;23.30;46.41;100370.34;16112982;19;129563;-45
2023/07/01 10:02:07;;;;;;;25.40;2.53;;;;;;;23.33;46.33;100364.13;16120566;19;130346;-42
2023/07/01 10:07:29;;;;;;;27.55;3.40;;;;;;;23.34;46.81;100361.06;16116303;19;130320;-46
2023/07/01 10:12:52;;;;;;;27.80;6.82;;;;;;;23.38;46.93;100366.91;16120337;19;130249;-44
2023/07/01 10:18:21;;;;;;;37.35;5.90;;;;;;;23.42;46.71;100347.59;16113995;19;130435;-44
2023/07/01 10:23:47;;;;;;;27.02;5.40;;;;;;;23.43;46.94;100352.06;16115761;19;129337;-43
2023/07/01 10:29:27;;;;;;;36.28;4.40;;;;;;;23.48;46.81;100354.81;16115526;19;131238;-43
2023/07/01 10:34:55;;;;;;;38.53;3.63;;;;;;;23.52;46.60;100347.50;16117765;19;130607;-42
2023/07/01 10:40:29;;;;;;;26.05;3.72;;;;;;;23.65;46.23;100354.41;16113308;19;129532;-45
2023/07/01 10:46:23;;;;;;;20.58;2.65;;;;;;;23.73;46.44;100344.56;16111574;19;129514;-43
2023/07/01 10:51:45;;;;;;;22.38;2.45;;;;;;;23.82;46.32;100342.78;16106274;19;130679;-45
2023/07/01 10:57:14;;;;;;;18.35;1.98;;;;;;;23.88;46.04;100343.53;16098827;19;129698;-42
2023/07/01 11:02:38;;;;;;;17.75;2.15;;;;;;;23.85;46.15;100342.19;16104548;19;129783;-46
2023/07/01 11:08:09;;;;;;;27.00;3.50;;;;;;;23.80;45.39;100356.19;16102815;19;130431;-46
2023/07/01 11:13:31;;;;;;;29.52;9.15;;;;;;;23.78;45.77;100350.91;16107153;19;133565;-48
2023/07/01 11:18:56;;;;;;;63.92;24.67;;;;;;;23.82;46.19;100342.78;16109476;19;131633;-45
2023/07/01 11:24:23;;;;;;;100.03;37.57;;;;;;;23.85;45.89;100332.97;16104947;19;129728;-49
2023/07/01 11:29:47;;;;;;;131.45;54.17;;;;;;;23.83;46.43;100336.06;16111980;19;131587;-49
2023/07/01 11:35:09;;;;;;;145.63;55.70;;;;;;;23.78;46.95;100336.09;16113168;19;130668;-44
2023/07/01 11:40:39;;;;;;;103.72;46.55;;;;;;;23.78;46.53;100345.34;16118318;19;130312;-45
2023/07/01 11:46:01;;;;;;;103.40;43.38;;;;;;;23.76;46.88;100344.78;16114262;19;130491;-47
2023/07/01 11:51:40;;;;;;;93.70;38.85;;;;;;;23.80;47.06;100350.59;16113241;19;129598;-46
2023/07/01 11:57:15;;;;;;;85.60;36.30;;;;;;;23.79;47.13;100354.53;16113521;19;130369;-44
2023/07/01 12:02:36;;;;;;;81.05;35.22;;;;;;;23.75;47.17;100365.47;16112424;19;134829;-43
2023/07/01 12:07:58;;;;;;;70.60;31.58;;;;;;;23.78;46.97;100369.63;16103491;19;131564;-47
2023/07/01 12:13:30;;;;;;;67.65;31.63;;;;;;;23.86;47.12;100369.00;16113508;19;129681;-44
2023/07/01 12:19:01;;;;;;;60.08;27.75;;;;;;;23.91;46.87;100360.53;16110002;19;129749;-44
2023/07/01 12:24:28;;;;;;;63.28;26.90;;;;;;;23.95;46.96;100372.78;16111799;19;129577;-48
2023/07/01 12:29:51;;;;;;;54.90;25.15;;;;;;;23.97;46.75;100373.34;16112712;19;129456;-44
2023/07/01 12:35:13;;;;;;;49.90;23.05;;;;;;;23.99;46.42;100378.63;16110537;19;130500;-44
2023/07/01 12:40:34;;;;;;;45.17;20.90;;;;;;;23.98;46.53;100374.16;16111163;19;130585;-42
2023/07/01 12:45:57;;;;;;;45.03;19.50;;;;;;;23.94;46.48;100396.28;16097706;19;133841;-44
2023/07/01 12:51:19;;;;;;;40.38;16.02;;;;;;;23.90;46.74;100397.97;16108849;19;129966;-44
2023/07/01 12:56:41;;;;;;;29.75;12.45;;;;;;;23.82;46.09;100410.63;16107600;19;129352;-48
2023/07/01 13:02:04;;;;;;;21.60;9.05;;;;;;;23.77;46.26;100410.69;16106421;19;130681;-46
2023/07/01 13:07:31;;;;;;;22.98;8.65;;;;;;;23.73;45.94;100406.00;16106808;19;130114;-46
2023/07/01 13:12:57;;;;;;;18.70;7.97;;;;;;;23.70;45.89;100401.00;16104519;19;129526;-47
2023/07/01 13:18:23;;;;;;;15.45;6.18;;;;;;;23.71;46.11;100403.47;16107800;19;130749;-43
2023/07/01 13:23:45;;;;;;;16.10;6.63;;;;;;;23.74;45.88;100404.88;16106735;19;130519;-42
2023/07/01 13:29:18;;;;;;;11.70;5.05;;;;;;;23.79;45.99;100415.97;16106831;19;130055;-48
2023/07/01 13:34:43;;;;;;;11.32;3.85;;;;;;;23.80;45.79;100406.47;16123732;19;129800;-46
2023/07/01 13:40:10;;;;;;;13.80;3.30;;;;;;;23.82;45.69;100409.81;16124499;19;131197;-44
2023/07/01 13:45:34;;;;;;;8.32;2.58;;;;;;;23.83;45.38;100408.69;16123351;19;129703;-45
2023/07/01 13:50:56;;;;;;;13.38;3.50;;;;;;;23.84;45.26;100423.47;16124233;19;130357;-44
2023/07/01 13:56:18;;;;;;;10.90;3.00;;;;;;;23.81;44.98;100430.50;16119697;19;129140;-42
2023/07/01 14:01:52;;;;;;;13.85;2.67;;;;;;;23.80;45.04;100418.50;16122266;19;129899;-41
2023/07/01 14:07:18;;;;;;;14.73;3.58;;;;;;;23.82;45.16;100424.59;16119844;19;131533;-42
2023/07/01 14:12:40;;;;;;;17.38;3.78;;;;;;;23.86;45.18;100430.44;16122443;19;130617;-45
2023/07/01 14:18:10;;;;;;;14.60;3.80;;;;;;;23.87;44.77;100436.84;16120074;19;129389;-46
2023/07/01 14:23:38;;;;;;;7.70;3.25;;;;;;;23.86;44.77;100430.44;16118419;19;131202;-45
2023/07/01 14:29:03;;;;;;;7.88;2.67;;;;;;;23.86;44.93;100447.22;16117126;19;131587;-42
2023/07/01 14:34:31;;;;;;;12.55;2.20;;;;;;;23.86;44.67;100450.00;16114418;19;130211;-41
2023/07/01 14:39:55;;;;;;;13.30;2.28;;;;;;;23.86;44.40;100460.31;16119899;19;129270;-45
2023/07/01 14:45:17;;;;;;;5.78;1.60;;;;;;;23.84;44.45;100457.84;16108697;19;135102;-44
2023/07/01 14:50:38;;;;;;;4.47;1.60;;;;;;;23.85;44.27;100459.50;16118378;19;132288;-47
2023/07/01 14:56:00;;;;;;;9.27;1.50;;;;;;;23.84;44.20;100469.00;16117066;19;130884;-46
2023/07/01 15:01:23;;;;;;;1.98;1.20;;;;;;;23.83;44.29;100472.94;16112689;19;130156;-43
2023/07/01 15:06:45;;;;;;;12.13;1.35;;;;;;;23.82;44.18;100460.09;16114326;19;129682;-46
2023/07/01 15:12:07;;;;;;;5.05;1.15;;;;;;;23.82;44.20;100468.47;16112527;19;129782;-43
2023/07/01 15:17:29;;;;;;;6.28;1.20;;;;;;;23.81;44.15;100470.44;16112978;19;130395;-46
2023/07/01 15:22:52;;;;;;;9.13;1.17;;;;;;;23.80;43.96;100470.72;16112852;19;133224;-45
2023/07/01 15:28:15;;;;;;;2.35;1.00;;;;;;;23.80;44.12;100484.69;16111201;19;129870;-45
2023/07/01 15:33:37;;;;;;;2.75;1.10;;;;;;;23.79;44.02;100474.63;16115962;19;129970;-46
2023/07/01 15:38:59;;;;;;;4.05;1.00;;;;;;;23.77;44.17;100477.72;16119198;19;130872;-42
2023/07/01 15:44:21;;;;;;;6.30;1.00;;;;;;;23.76;44.29;100489.19;16113026;19;129990;-47
2023/07/01 15:49:43;;;;;;;4.13;1.08;;;;;;;23.76;44.24;100475.22;16110334;19;131059;-45
2023/07/01 15:55:05;;;;;;;2.58;0.70;;;;;;;23.74;44.09;100483.06;16113862;19;129938;-46
2023/07/01 16:00:27;;;;;;;26.92;2.17;;;;;;;23.70;43.82;100490.34;16117543;19;130368;-49
2023/07/01 16:05:49;;;;;;;11.18;1.55;;;;;;;23.71;44.23;100503.19;16107046;19;131642;-44
2023/07/01 16:11:23;;;;;;;6.43;0.90;;;;;;;23.72;44.18;100507.66;16108799;19;135308;-47
2023/07/01 16:16:45;;;;;;;6.97;0.85;;;;;;;23.70;44.02;100513.53;16108512;19;130013;-44
2023/07/01 16:22:11;;;;;;;5.10;0.73;;;;;;;23.69;44.15;100516.63;16109290;19;130835;-43
2023/07/01 16:27:33;;;;;;;8.48;0.98;;;;;;;23.66;44.03;100521.66;16113293;19;129616;-43
2023/07/01 16:32:58;;;;;;;5.40;0.88;;;;;;;23.66;44.29;100515.25;16111920;19;129772;-44
2023/07/01 16:38:27;;;;;;;;;;;;;;;23.60;43.73;100531.22;16110870;19;130038;-45
2023/07/01 16:43:52;;;;;;;8.57;0.80;;;;;;;23.61;44.01;100521.72;16108439;19;130597;-47
2023/07/01 16:49:16;;;;;;;6.93;0.98;;;;;;;23.59;44.05;100523.94;16106785;19;131540;-47
2023/07/01 16:54:39;;;;;;;3.17;0.70;;;;;;;23.60;43.83;100525.63;16111430;19;131056;-45
2023/07/01 17:00:07;;;;;;;4.07;0.50;;;;;;;23.60;44.06;100525.63;16111224;19;129550;-43
2023/07/01 17:05:30;;;;;;;2.40;0.70;;;;;;;23.59;44.17;100537.91;16107304;19;129512;-43
2023/07/01 17:10:52;;;;;;;2.45;0.70;;;;;;;23.58;44.14;100530.66;16105998;19;129689;-45
2023/07/01 17:16:19;;;;;;;1.88;0.50;;;;;;;23.57;43.89;100534.53;16107330;19;130294;-44
2023/07/01 17:21:41;;;;;;;3.08;0.57;;;;;;;23.55;43.92;100535.97;16107994;19;130355;-44
2023/07/01 17:27:04;;;;;;;2.78;0.85;;;;;;;23.55;43.67;100536.78;16107136;19;130249;-43
2023/07/01 17:32:26;;;;;;;2.38;0.43;;;;;;;23.56;43.72;100548.81;16105057;19;131620;-48
2023/07/01 17:37:49;;;;;;;3.42;0.70;;;;;;;23.52;44.09;100545.72;16109919;19;130230;-48
2023/07/01 17:43:10;;;;;;;5.97;0.55;;;;;;;23.51;43.99;100549.66;16107364;19;129794;-41
2023/07/01 17:48:32;;;;;;;9.18;0.90;;;;;;;23.51;44.42;100555.22;16106348;19;130932;-43
2023/07/01 17:53:54;;;;;;;9.60;0.80;;;;;;;23.50;44.18;100550.78;16104215;19;129597;-43
2023/07/01 17:59:16;;;;;;;8.88;0.80;;;;;;;23.51;44.22;100550.50;16110242;19;130848;-41
2023/07/01 18:04:38;;;;;;;8.77;0.73;;;;;;;23.53;44.23;100564.16;16102394;19;131856;-46
2023/07/01 18:10:00;;;;;;;5.88;0.95;;;;;;;23.55;44.33;100566.69;16105956;19;131027;-43
2023/07/01 18:15:22;;;;;;;7.53;0.70;;;;;;;23.56;44.48;100563.59;16106697;19;129456;-47
2023/07/01 18:20:45;;;;;;;5.13;0.60;;;;;;;23.58;44.42;100566.06;16117731;19;130220;-45
2023/07/01 18:26:16;;;;;;;10.82;1.02;;;;;;;23.59;44.24;100578.94;16117631;19;130004;-46
2023/07/01 18:31:39;;;;;;;6.97;0.50;;;;;;;23.60;44.25;100566.66;16119051;19;130059;-44
2023/07/01 18:37:01;;;;;;;6.80;0.70;;;;;;;23.60;44.09;100575.03;16120982;19;129819;-46
2023/07/01 18:42:23;;;;;;;2.22;0.38;;;;;;;23.60;44.51;100581.47;16118501;19;129825;-42
2023/07/01 18:47:45;;;;;;;3.65;0.50;;;;;;;23.59;44.09;100588.19;16117891;19;129911;-44
2023/07/01 18:53:07;;;;;;;6.18;0.65;;;;;;;23.58;44.35;100589.28;16117127;19;129341;-47
2023/07/01 18:58:29;;;;;;;0.85;0.45;;;;;;;23.58;44.35;100594.88;16116873;19;130234;-42
2023/07/01 19:03:51;;;;;;;3.35;0.70;;;;;;;23.56;44.21;100601.84;16116212;19;129554;-46
2023/07/01 19:09:13;;;;;;;3.60;0.40;;;;;;;23.55;44.33;100602.97;16113745;19;129409;-45
2023/07/01 19:14:35;;;;;;;2.70;0.30;;;;;;;23.54;44.16;100604.09;16113020;19;130435;-42
2023/07/01 19:19:57;;;;;;;17.80;0.60;;;;;;;23.52;44.39;100612.75;16110683;19;129572;-42
2023/07/01 19:25:19;;;;;;;2.70;0.60;;;;;;;23.51;44.43;100617.50;16112445;19;131145;-44
2023/07/01 19:30:42;;;;;;;2.00;0.40;;;;;;;23.51;44.64;100616.66;16112085;19;131734;-46
2023/07/01 19:36:05;;;;;;;7.35;0.50;;;;;;;23.50;44.68;100626.19;16114184;19;129919;-49
2023/07/01 19:41:26;;;;;;;3.40;0.40;;;;;;;23.48;44.42;100632.03;16113373;19;131325;-46
2023/07/01 19:46:48;;;;;;;3.75;0.50;;;;;;;23.48;44.83;100636.78;16109813;19;129702;-49
2023/07/01 19:52:11;;;;;;;3.60;0.43;;;;;;;23.47;44.49;100643.50;16110252;19;129718;-46
2023/07/01 19:57:34;;;;;;;5.57;0.47;;;;;;;23.46;44.56;100653.00;16117242;19;129762;-47
2023/07/01 20:02:56;;;;;;;1.95;0.52;;;;;;;23.47;44.70;100651.88;16112658;19;131414;-48
2023/07/01 20:08:18;;;;;;;6.43;0.65;;;;;;;23.45;44.60;100657.72;16112542;19;129977;-44
2023/07/01 20:13:40;;;;;;;3.00;0.50;;;;;;;23.45;44.66;100673.66;16114437;19;132871;-45
2023/07/01 20:19:02;;;;;;;5.65;0.50;;;;;;;23.45;44.60;100676.44;16109310;19;131081;-43
2023/07/01 20:24:24;;;;;;;7.35;0.60;;;;;;;23.45;44.89;100682.03;16114435;19;129637;-42
2023/07/01 20:29:47;;;;;;;3.13;0.60;;;;;;;23.44;44.92;100683.16;16108144;19;130143;-42
2023/07/01 20:35:10;;;;;;;3.20;0.52;;;;;;;23.44;44.69;100691.53;16110817;19;130627;-42
2023/07/01 20:40:32;;;;;;;7.20;0.50;;;;;;;23.44;44.75;100694.31;16110789;19;133893;-43
2023/07/01 20:45:53;;;;;;;7.93;0.68;;;;;;;23.44;44.83;100697.09;16107933;19;131546;-46
2023/07/01 20:51:15;;;;;;;5.05;0.82;;;;;;;23.41;44.77;100700.47;16107478;19;130080;-44
2023/07/01 20:56:37;;;;;;;3.90;0.63;;;;;;;23.38;44.94;100701.88;16103659;19;129303;-46
2023/07/01 21:02:00;;;;;;;5.90;0.80;;;;;;;23.35;44.79;100708.88;16106067;19;131487;-41
2023/07/01 21:07:22;;;;;;;6.35;0.93;;;;;;;23.33;44.84;100715.81;16108603;19;130770;-46
2023/07/01 21:12:44;;;;;;;2.08;0.80;;;;;;;23.32;44.90;100714.19;16101001;19;131132;-45
2023/07/01 21:18:06;;;;;;;1.73;0.57;;;;;;;23.29;44.45;100707.19;16104424;19;129652;-44
2023/07/01 21:23:28;;;;;;;2.88;0.60;;;;;;;23.29;44.77;100714.75;16104601;19;129375;-46
2023/07/01 21:28:50;;;;;;;3.85;0.68;;;;;;;23.27;44.64;100712.22;16107082;19;130229;-44
2023/07/01 21:34:13;;;;;;;3.05;0.60;;;;;;;23.26;44.59;100715.31;16103109;19;129874;-45
2023/07/01 21:39:35;;;;;;;4.68;0.68;;;;;;;23.24;44.86;100718.38;16105421;19;129593;-47
2023/07/01 21:44:57;;;;;;;3.40;0.70;;;;;;;23.23;44.70;100727.03;16106056;19;130758;-49
2023/07/01 21:50:46;;;;;;;2.80;0.50;;;;;;;23.23;44.69;100733.47;16103549;19;130208;-45
2023/07/01 21:56:14;;;;;;;3.40;0.80;;;;;;;23.20;44.57;100725.66;16121085;19;130903;-47
2023/07/01 22:01:38;;;;;;;2.10;0.60;;;;;;;23.19;44.75;100726.75;16123307;19;129468;-43
2023/07/01 22:07:00;;;;;;;4.22;0.80;;;;;;;23.17;44.57;100726.19;16120037;19;130644;-44
2023/07/01 22:12:22;;;;;;;5.15;0.63;;;;;;;23.17;44.52;100729.00;16114253;19;131310;-46
2023/07/01 22:17:43;;;;;;;2.28;0.70;;;;;;;23.16;44.28;100736.53;16121269;19;129489;-44
2023/07/01 22:23:05;;;;;;;3.03;0.60;;;;;;;23.15;44.52;100737.66;16117812;19;130612;-46
2023/07/01 22:28:31;;;;;;;4.45;0.80;;;;;;;23.15;44.33;100734.00;16121368;19;130072;-45
2023/07/01 22:33:54;;;;;;;;;;;;;;;23.11;44.36;100730.13;16124457;19;130979;-44
2023/07/01 22:39:16;;;;;;;1.52;0.82;;;;;;;23.13;44.38;100730.69;16120155;19;129269;-47
2023/07/01 22:44:38;;;;;;;4.07;0.90;;;;;;;23.11;44.48;100728.16;16118303;19;130959;-46
2023/07/01 22:50:14;;;;;;;3.80;0.80;;;;;;;23.11;44.43;100735.72;16124166;19;129423;-47
2023/07/01 22:55:36;;;;;;;2.78;0.80;;;;;;;23.09;44.29;100727.59;16117538;19;129877;-49
2023/07/01 23:00:57;;;;;;;3.30;1.05;;;;;;;23.09;44.30;100743.53;16117832;19;130258;-48
2023/07/01 23:06:19;;;;;;;3.90;0.98;;;;;;;23.08;44.29;100741.84;16113461;19;129670;-46
2023/07/01 23:11:41;;;;;;;4.13;1.15;;;;;;;23.07;44.35;100735.44;16109992;19;130715;-47
2023/07/01 23:17:03;;;;;;;3.97;0.90;;;;;;;23.07;44.36;100723.44;16113561;19;130363;-44
2023/07/01 23:22:25;;;;;;;1.95;1.08;;;;;;;23.06;43.97;100714.25;16109630;19;131283;-47
2023/07/01 23:27:47;;;;;;;2.88;0.90;;;;;;;23.05;44.53;100720.94;16114858;19;130650;-46
2023/07/01 23:33:10;;;;;;;1.85;1.00;;;;;;;23.04;44.06;100728.47;16117013;19;130027;-49
2023/07/01 23:38:32;;;;;;;2.22;1.27;;;;;;;23.03;44.22;100724.00;16115144;19;131710;-46
2023/07/01 23:43:54;;;;;;;3.10;1.30;;;;;;;23.02;44.10;100725.09;16111590;19;129517;-44
2023/07/01 23:49:16;;;;;;;2.63;1.13;;;;;;;23.02;43.93;100718.72;16107770;19;130913;-47
2023/07/01 23:54:38;;;;;;;3.55;1.40;;;;;;;23.01;44.16;100731.84;16113453;19;129769;-48
